Time;durP1;ratioP1;P1;durP2;ratioP2;P2;SDS_P1;SDS_P2;PMS_P1;PMS_P2;Temp;Humidity;BMP_temperature;BMP_pressure;BME280_temperature;BME280_humidity;BME280_pressure;Samples;Min_cycle;Max_cycle;Signal;HPM_P1;HPM_P2
2023/07/03 00:01:25;;;;;;;;;4.33;3.33;;;;;;;;5030597;28;45790;-72
2023/07/03 00:03:51;;;;;;;;;4.33;3.00;;;;;;;;5025506;28;46183;-71
2023/07/03 00:06:16;;;;;;;;;2.00;2.00;;;;;;;;5025388;28;46925;-73
2023/07/03 00:08:42;;;;;;;;;3.67;3.00;;;;;;;;5032935;28;45459;-75
2023/07/03 00:11:07;;;;;;;;;5.33;3.00;;;;;;;;5025728;28;45501;-71
2023/07/03 00:13:32;;;;;;;;;3.33;2.67;;;;;;;;5012543;28;45695;-72
2023/07/03 00:16:01;;;;;;;;;5.67;3.00;;;;;;;;5011065;28;46529;-71
2023/07/03 00:18:27;;;;;;;;;4.00;3.67;;;;;;;;5031568;28;45494;-73
2023/07/03 00:20:54;;;;;;;;;6.00;5.00;;;;;;;;5033236;28;45773;-72
2023/07/03 00:23:23;;;;;;;;;6.67;4.33;;;;;;;;5033860;28;45625;-74
2023/07/03 00:25:48;;;;;;;;;13.67;9.67;;;;;;;;5028126;28;47402;-72
2023/07/03 00:28:14;;;;;;;;;4.00;3.00;;;;;;;;5036679;28;45898;-72
2023/07/03 00:30:39;;;;;;;;;5.33;3.67;;;;;;;;5028414;28;45669;-73
2023/07/03 00:33:04;;;;;;;;;4.00;2.00;;;;;;;;5036875;28;45501;-73
2023/07/03 00:35:29;;;;;;;;;3.67;2.00;;;;;;;;5033942;28;46388;-72
2023/07/03 00:37:55;;;;;;;;;4.00;2.67;;;;;;;;5032655;28;45719;-73
2023/07/03 00:40:20;;;;;;;;;4.33;4.00;;;;;;;;5035105;28;45929;-72
2023/07/03 00:42:45;;;;;;;;;3.00;2.33;;;;;;;;5035921;28;45854;-72
2023/07/03 00:45:10;;;;;;;;;3.33;3.00;;;;;;;;5028204;28;46010;-73
2023/07/03 00:47:37;;;;;;;;;4.00;3.00;;;;;;;;5031460;28;46023;-72
2023/07/03 00:50:02;;;;;;;;;2.00;2.00;;;;;;;;5025768;28;45427;-72
2023/07/03 00:52:27;;;;;;;;;3.00;2.00;;;;;;;;5006795;28;47256;-72
2023/07/03 00:54:54;;;;;;;;;3.67;2.33;;;;;;;;5030924;28;45500;-73
2023/07/03 00:57:23;;;;;;;;;6.67;4.00;;;;;;;;5034351;28;45518;-72
2023/07/03 00:59:48;;;;;;;;;10.33;3.00;;;;;;;;5030485;28;45530;-72
2023/07/03 01:02:13;;;;;;;;;4.00;3.00;;;;;;;;5032704;28;45379;-71
2023/07/03 01:04:49;;;;;;;;;7.67;3.33;;;;;;;;5012171;28;46512;-71
2023/07/03 01:07:16;;;;;;;;;8.00;4.00;;;;;;;;5023747;28;45477;-74
2023/07/03 01:10:01;;;;;;;;;4.67;4.33;;;;;;;;5040101;28;46749;-71
2023/07/03 01:12:28;;;;;;;;;7.00;5.00;;;;;;;;5029299;28;45655;-71
2023/07/03 01:14:57;;;;;;;;;10.00;7.33;;;;;;;;5034913;28;46267;-73
2023/07/03 01:17:24;;;;;;;;;5.67;4.33;;;;;;;;5034771;28;45743;-71
2023/07/03 01:19:50;;;;;;;;;5.67;3.00;;;;;;;;5028284;28;45842;-72
2023/07/03 01:22:22;;;;;;;;;3.33;3.00;;;;;;;;5028313;28;45667;-71
2023/07/03 01:24:53;;;;;;;;;5.33;3.67;;;;;;;;5036541;28;45356;-71
2023/07/03 01:27:20;;;;;;;;;3.67;2.33;;;;;;;;5033372;28;45400;-72
2023/07/03 01:29:46;;;;;;;;;2.33;2.33;;;;;;;;5035920;28;45474;-71
2023/07/03 01:32:13;;;;;;;;;2.33;1.67;;;;;;;;5044766;28;45639;-71
2023/07/03 01:34:40;;;;;;;;;5.67;3.33;;;;;;;;5035179;28;45364;-72
2023/07/03 01:37:06;;;;;;;;;3.00;3.00;;;;;;;;5035596;28;45558;-71
2023/07/03 01:39:31;;;;;;;;;4.00;3.33;;;;;;;;5034074;28;45594;-71
2023/07/03 01:41:57;;;;;;;;;4.33;4.00;;;;;;;;5035683;28;45375;-72
2023/07/03 01:44:23;;;;;;;;;4.33;4.00;;;;;;;;5034660;28;45348;-72
2023/07/03 01:46:48;;;;;;;;;3.33;3.33;;;;;;;;5028846;28;45297;-71
2023/07/03 01:49:14;;;;;;;;;4.00;4.00;;;;;;;;5035173;28;45402;-72
2023/07/03 01:51:47;;;;;;;;;6.00;5.00;;;;;;;;5017703;28;45407;-72
2023/07/03 01:54:17;;;;;;;;;3.33;3.00;;;;;;;;5034201;28;46490;-71
2023/07/03 01:56:45;;;;;;;;;3.67;3.67;;;;;;;;5031224;28;45704;-71
2023/07/03 01:59:12;;;;;;;;;5.33;3.67;;;;;;;;5014391;28;45693;-72
2023/07/03 02:01:42;;;;;;;;;5.33;3.00;;;;;;;;5028197;28;45984;-71
2023/07/03 02:04:18;;;;;;;;;5.00;4.00;;;;;;;;5025843;28;46304;-71
2023/07/03 02:06:45;;;;;;;;;4.67;4.00;;;;;;;;5034283;28;45556;-71
2023/07/03 02:09:11;;;;;;;;;5.33;4.00;;;;;;;;5034822;28;45416;-71
2023/07/03 02:11:37;;;;;;;;;6.00;3.00;;;;;;;;5034588;28;45504;-71
2023/07/03 02:14:02;;;;;;;;;5.00;3.00;;;;;;;;5012499;28;47054;-71
2023/07/03 02:16:31;;;;;;;;;4.67;4.33;;;;;;;;5021759;28;45559;-72
2023/07/03 02:18:56;;;;;;;;;2.00;2.00;;;;;;;;5031760;28;45352;-72
2023/07/03 02:21:22;;;;;;;;;4.00;3.00;;;;;;;;5030028;28;45466;-71
2023/07/03 02:23:47;;;;;;;;;9.00;4.00;;;;;;;;5026708;28;45515;-72
2023/07/03 02:26:13;;;;;;;;;5.00;4.67;;;;;;;;5034319;28;45783;-71
2023/07/03 02:28:39;;;;;;;;;5.67;4.67;;;;;;;;5043664;28;45573;-72
2023/07/03 02:31:04;;;;;;;;;3.00;3.00;;;;;;;;5017423;28;45657;-70
2023/07/03 02:33:29;;;;;;;;;8.67;5.00;;;;;;;;5017361;28;47152;-72
2023/07/03 02:35:55;;;;;;;;;4.33;4.33;;;;;;;;5030472;28;45580;-72
2023/07/03 02:38:20;;;;;;;;;4.67;3.33;;;;;;;;5033987;28;45457;-71
2023/07/03 02:40:46;;;;;;;;;5.33;5.00;;;;;;;;5034508;28;45676;-72
2023/07/03 02:43:11;;;;;;;;;8.33;5.00;;;;;;;;5033998;28;46356;-72
2023/07/03 02:45:38;;;;;;;;;10.33;5.67;;;;;;;;5033943;28;45617;-72
2023/07/03 02:48:03;;;;;;;;;8.67;5.67;;;;;;;;5034546;28;45404;-71
2023/07/03 02:50:28;;;;;;;;;3.67;3.67;;;;;;;;5033955;28;45365;-72
2023/07/03 02:52:53;;;;;;;;;5.33;5.00;;;;;;;;5016094;28;46922;-72
2023/07/03 02:55:19;;;;;;;;;4.33;4.33;;;;;;;;5028322;28;45443;-72
2023/07/03 02:57:44;;;;;;;;;6.00;5.33;;;;;;;;5033732;28;45612;-72
2023/07/03 03:00:11;;;;;;;;;9.67;5.00;;;;;;;;5029042;28;45419;-72
2023/07/03 03:02:36;;;;;;;;;5.00;3.67;;;;;;;;5017645;28;45544;-70
2023/07/03 03:05:01;;;;;;;;;6.67;5.00;;;;;;;;5027593;28;45521;-72
2023/07/03 03:07:26;;;;;;;;;7.33;4.33;;;;;;;;5029355;28;45591;-72
2023/07/03 03:09:52;;;;;;;;;7.00;5.00;;;;;;;;5032452;28;45487;-72
2023/07/03 03:12:17;;;;;;;;;6.67;6.00;;;;;;;;5004377;28;46603;-71
2023/07/03 03:14:42;;;;;;;;;8.33;4.67;;;;;;;;5034014;28;45422;-71
2023/07/03 03:17:07;;;;;;;;;8.67;5.33;;;;;;;;5025499;28;45520;-71
2023/07/03 03:19:32;;;;;;;;;5.00;4.33;;;;;;;;5032492;28;46004;-73
2023/07/03 03:21:58;;;;;;;;;5.33;4.67;;;;;;;;5031390;28;45336;-72
2023/07/03 03:24:23;;;;;;;;;9.33;6.00;;;;;;;;5023523;28;45707;-71
2023/07/03 03:26:48;;;;;;;;;9.33;6.00;;;;;;;;5032489;28;45477;-72
2023/07/03 03:29:13;;;;;;;;;8.00;6.00;;;;;;;;5030345;28;45614;-71
2023/07/03 03:31:39;;;;;;;;;6.33;5.00;;;;;;;;5033425;28;45576;-74
2023/07/03 03:34:04;;;;;;;;;10.33;7.67;;;;;;;;5033199;28;45860;-73
2023/07/03 03:36:32;;;;;;;;;8.00;6.33;;;;;;;;5032443;28;45925;-72
2023/07/03 03:38:58;;;;;;;;;8.00;7.00;;;;;;;;5027903;28;45316;-72
2023/07/03 03:41:23;;;;;;;;;6.33;5.00;;;;;;;;5015109;28;47134;-71
2023/07/03 03:43:48;;;;;;;;;8.00;7.00;;;;;;;;5033967;28;45510;-72
2023/07/03 03:46:13;;;;;;;;;10.33;8.00;;;;;;;;5027689;28;45557;-71
2023/07/03 03:48:39;;;;;;;;;8.00;6.00;;;;;;;;5026290;28;45383;-75
2023/07/03 03:51:04;;;;;;;;;5.00;5.00;;;;;;;;5033600;28;45861;-72
2023/07/03 03:53:29;;;;;;;;;7.33;7.00;;;;;;;;5034504;28;45611;-72
2023/07/03 03:55:54;;;;;;;;;9.67;6.00;;;;;;;;5029765;28;45436;-74
2023/07/03 03:58:20;;;;;;;;;8.00;5.67;;;;;;;;5036812;28;45694;-75
2023/07/03 04:00:46;;;;;;;;;9.67;7.33;;;;;;;;5035832;28;45612;-74
2023/07/03 04:03:12;;;;;;;;;8.33;6.33;;;;;;;;5034259;28;45359;-73
2023/07/03 04:05:38;;;;;;;;;11.33;7.33;;;;;;;;5018424;28;45756;-74
2023/07/03 04:08:05;;;;;;;;;6.00;6.00;;;;;;;;5030013;28;45676;-75
2023/07/03 04:10:30;;;;;;;;;8.67;5.67;;;;;;;;5016319;28;47275;-73
2023/07/03 04:12:55;;;;;;;;;9.67;6.67;;;;;;;;5036233;28;45387;-72
2023/07/03 04:15:23;;;;;;;;;7.67;7.33;;;;;;;;5029552;28;45399;-73
2023/07/03 04:17:49;;;;;;;;;6.67;6.67;;;;;;;;5034708;28;46116;-74
2023/07/03 04:20:14;;;;;;;;;5.67;5.00;;;;;;;;5033826;28;46566;-73
2023/07/03 04:22:40;;;;;;;;;8.33;7.33;;;;;;;;5030824;28;45881;-72
2023/07/03 04:25:05;;;;;;;;;7.67;7.00;;;;;;;;5031157;28;46482;-72
2023/07/03 04:27:30;;;;;;;;;4.00;3.00;;;;;;;;5027457;28;45792;-72
2023/07/03 04:29:55;;;;;;;;;8.00;7.67;;;;;;;;5020415;28;46238;-73
2023/07/03 04:32:21;;;;;;;;;14.33;10.00;;;;;;;;5034643;28;45326;-72
2023/07/03 04:34:46;;;;;;;;;9.00;7.00;;;;;;;;5035244;28;45300;-72
2023/07/03 04:37:11;;;;;;;;;27.00;27.00;;;;;;;;5018385;28;45478;-73
2023/07/03 04:39:36;;;;;;;;;16.67;9.00;;;;;;;;5035991;28;46480;-72
2023/07/03 04:42:01;;;;;;;;;16.33;16.33;;;;;;;;5036923;28;45457;-73
2023/07/03 04:44:27;;;;;;;;;18.33;15.00;;;;;;;;5039267;28;45363;-73
2023/07/03 04:46:56;;;;;;;;;7.67;7.33;;;;;;;;5032501;28;45501;-74
2023/07/03 04:49:26;;;;;;;;;11.00;10.00;;;;;;;;5005978;28;45560;-73
2023/07/03 04:51:54;;;;;;;;;7.67;5.33;;;;;;;;5008671;28;45901;-82
2023/07/03 04:54:20;;;;;;;;;7.33;7.33;;;;;;;;5011876;28;46622;-76
2023/07/03 04:56:46;;;;;;;;;8.67;6.33;;;;;;;;5033284;28;45485;-79
2023/07/03 04:59:12;;;;;;;;;5.33;5.00;;;;;;;;5035164;28;45803;-75
2023/07/03 05:01:37;;;;;;;;;3.67;3.33;;;;;;;;5029275;28;45605;-76
2023/07/03 05:04:02;;;;;;;;;9.00;7.67;;;;;;;;5031061;28;45450;-78
2023/07/03 05:06:28;;;;;;;;;7.67;7.67;;;;;;;;5032214;28;45704;-76
2023/07/03 05:08:53;;;;;;;;;5.67;4.33;;;;;;;;5012435;28;46914;-78
2023/07/03 05:11:19;;;;;;;;;9.33;5.67;;;;;;;;5034779;28;45682;-80
2023/07/03 05:13:44;;;;;;;;;8.00;5.00;;;;;;;;5033876;28;46051;-77
2023/07/03 05:16:09;;;;;;;;;8.33;7.00;;;;;;;;5020164;28;45542;-80
2023/07/03 05:18:35;;;;;;;;;9.33;6.00;;;;;;;;5023875;28;45593;-79
2023/07/03 05:21:00;;;;;;;;;9.33;8.00;;;;;;;;5036009;28;45495;-78
2023/07/03 05:23:26;;;;;;;;;10.67;5.33;;;;;;;;5035883;28;45467;-83
2023/07/03 05:25:54;;;;;;;;;7.00;4.67;;;;;;;;5026044;28;45487;-78
2023/07/03 05:28:24;;;;;;;;;8.00;6.67;;;;;;;;5017122;28;45875;-80
2023/07/03 05:30:54;;;;;;;;;10.50;6.50;;;;;;;;5017053;28;45809;-80
2023/07/03 05:33:19;;;;;;;;;8.33;4.33;;;;;;;;5032908;28;45470;-78
2023/07/03 05:35:45;;;;;;;;;8.00;7.00;;;;;;;;5035481;28;45416;-79
2023/07/03 05:38:10;;;;;;;;;5.33;5.00;;;;;;;;5031902;28;46824;-77
2023/07/03 05:40:35;;;;;;;;;9.00;6.67;;;;;;;;5030977;28;45803;-79
2023/07/03 05:43:00;;;;;;;;;8.33;7.00;;;;;;;;5035617;28;45406;-79
2023/07/03 05:45:26;;;;;;;;;5.33;3.67;;;;;;;;5025557;28;45597;-79
2023/07/03 05:47:51;;;;;;;;;6.33;5.00;;;;;;;;5035737;28;45531;-78
2023/07/03 05:50:16;;;;;;;;;5.33;4.00;;;;;;;;5017479;28;45493;-80
2023/07/03 05:52:43;;;;;;;;;7.67;5.67;;;;;;;;5033954;28;45504;-78
2023/07/03 05:55:09;;;;;;;;;4.33;4.33;;;;;;;;5024535;28;45454;-77
2023/07/03 05:57:34;;;;;;;;;8.00;6.67;;;;;;;;5030914;28;46187;-76
2023/07/03 05:59:59;;;;;;;;;5.00;5.00;;;;;;;;5031727;28;45402;-76
2023/07/03 06:02:25;;;;;;;;;7.67;5.33;;;;;;;;5035714;28;45656;-83
2023/07/03 06:04:51;;;;;;;;;5.00;4.00;;;;;;;;5016972;28;45511;-80
2023/07/03 06:07:16;;;;;;;;;6.33;5.00;;;;;;;;5010712;28;45890;-77
2023/07/03 06:09:41;;;;;;;;;3.33;2.33;;;;;;;;5031092;28;45681;-76
2023/07/03 06:12:07;;;;;;;;;5.25;5.25;;;;;;;;5026408;28;46006;-76
2023/07/03 06:14:32;;;;;;;;;7.00;4.00;;;;;;;;5010098;28;45667;-80
2023/07/03 06:16:58;;;;;;;;;7.33;4.33;;;;;;;;5028897;28;45927;-80
2023/07/03 06:19:24;;;;;;;;;8.25;6.00;;;;;;;;5013952;28;45830;-77
2023/07/03 06:21:49;;;;;;;;;6.25;4.00;;;;;;;;5029879;28;45485;-79
2023/07/03 06:24:15;;;;;;;;;8.25;5.00;;;;;;;;5015955;28;46075;-76
2023/07/03 06:26:41;;;;;;;;;4.00;4.00;;;;;;;;5032746;28;45565;-79
2023/07/03 06:29:07;;;;;;;;;3.00;3.00;;;;;;;;5027700;28;45947;-79
2023/07/03 06:31:32;;;;;;;;;4.33;4.33;;;;;;;;5028096;28;45560;-76
2023/07/03 06:33:58;;;;;;;;;5.00;5.00;;;;;;;;5026598;28;45552;-78
2023/07/03 06:36:24;;;;;;;;;6.75;4.00;;;;;;;;5039927;28;45747;-77
2023/07/03 06:38:53;;;;;;;;;3.75;3.25;;;;;;;;5015456;28;45607;-77
2023/07/03 06:41:19;;;;;;;;;5.00;5.00;;;;;;;;5030016;28;45618;-77
2023/07/03 06:43:44;;;;;;;;;5.00;5.00;;;;;;;;5032723;28;45703;-80
2023/07/03 06:46:10;;;;;;;;;5.75;3.00;;;;;;;;5030320;28;45744;-77
2023/07/03 06:48:36;;;;;;;;;4.75;3.00;;;;;;;;5012842;28;45771;-78
2023/07/03 06:51:02;;;;;;;;;5.00;4.50;;;;;;;;5033483;28;45801;-77
2023/07/03 06:53:28;;;;;;;;;6.00;5.00;;;;;;;;5027866;28;45756;-77
2023/07/03 06:55:57;;;;;;;;;7.50;4.25;;;;;;;;5031298;28;46082;-76
2023/07/03 06:58:22;;;;;;;;;4.00;3.25;;;;;;;;5023902;28;45408;-78
2023/07/03 07:00:47;;;;;;;;;3.00;3.00;;;;;;;;5030897;28;45609;-77
2023/07/03 07:03:12;;;;;;;;;4.25;3.25;;;;;;;;5029904;28;45832;-77
2023/07/03 07:05:38;;;;;;;;;4.00;3.00;;;;;;;;5029050;28;45710;-77
2023/07/03 07:08:03;;;;;;;;;4.25;3.25;;;;;;;;5007302;28;45450;-78
2023/07/03 07:10:28;;;;;;;;;4.50;4.00;;;;;;;;5030986;28;45620;-78
2023/07/03 07:12:53;;;;;;;;;6.50;4.50;;;;;;;;5031671;28;45689;-78
2023/07/03 07:15:19;;;;;;;;;6.00;4.00;;;;;;;;5030458;28;46072;-77
2023/07/03 07:17:44;;;;;;;;;4.75;4.00;;;;;;;;5023533;28;45472;-78
2023/07/03 07:20:09;;;;;;;;;3.00;3.00;;;;;;;;5023133;28;45768;-77
2023/07/03 07:22:35;;;;;;;;;5.00;3.00;;;;;;;;5031754;28;45505;-78
2023/07/03 07:25:00;;;;;;;;;5.25;3.75;;;;;;;;5032216;28;45504;-78
2023/07/03 07:27:25;;;;;;;;;4.50;3.50;;;;;;;;5028773;28;45712;-78
2023/07/03 07:29:50;;;;;;;;;2.00;2.00;;;;;;;;5031726;28;46164;-78
2023/07/03 07:32:16;;;;;;;;;4.25;4.25;;;;;;;;5016281;28;45851;-76
2023/07/03 07:34:41;;;;;;;;;6.25;4.00;;;;;;;;5029161;28;46202;-77
2023/07/03 07:37:06;;;;;;;;;4.00;4.00;;;;;;;;5033061;28;45483;-78
2023/07/03 07:39:31;;;;;;;;;4.25;4.25;;;;;;;;5033985;28;45790;-78
2023/07/03 07:41:57;;;;;;;;;5.25;5.00;;;;;;;;5019048;28;47094;-77
2023/07/03 07:44:22;;;;;;;;;8.00;6.50;;;;;;;;5033562;28;46044;-77
2023/07/03 07:46:47;;;;;;;;;5.00;5.00;;;;;;;;5031697;28;45591;-78
2023/07/03 07:49:13;;;;;;;;;5.50;3.25;;;;;;;;5035246;28;45737;-79
2023/07/03 07:51:39;;;;;;;;;7.00;4.25;;;;;;;;5012797;28;45662;-78
2023/07/03 07:54:05;;;;;;;;;3.50;3.50;;;;;;;;5034558;28;45407;-77
2023/07/03 07:56:30;;;;;;;;;6.00;4.25;;;;;;;;5035318;28;45639;-78
2023/07/03 07:58:56;;;;;;;;;6.50;5.00;;;;;;;;5036218;28;45764;-78
2023/07/03 08:01:21;;;;;;;;;6.75;3.25;;;;;;;;5012460;28;45520;-78
2023/07/03 08:03:47;;;;;;;;;5.50;4.00;;;;;;;;5029873;28;45457;-79
2023/07/03 08:06:13;;;;;;;;;4.50;3.25;;;;;;;;5034794;28;45360;-78
2023/07/03 08:08:39;;;;;;;;;7.00;4.00;;;;;;;;5033461;28;45496;-79
2023/07/03 08:11:05;;;;;;;;;3.75;2.25;;;;;;;;5027537;28;45874;-78
2023/07/03 08:13:32;;;;;;;;;5.50;4.00;;;;;;;;5025322;28;45849;-76
2023/07/03 08:15:57;;;;;;;;;3.00;3.00;;;;;;;;5026218;28;45524;-77
2023/07/03 08:18:23;;;;;;;;;4.00;4.00;;;;;;;;5010159;28;45388;-77
2023/07/03 08:20:48;;;;;;;;;3.25;3.25;;;;;;;;5008616;28;45639;-78
2023/07/03 08:23:14;;;;;;;;;3.50;3.50;;;;;;;;5028104;28;46167;-79
2023/07/03 08:25:40;;;;;;;;;4.25;4.25;;;;;;;;5016707;28;45962;-77
2023/07/03 08:28:05;;;;;;;;;6.00;4.25;;;;;;;;5030933;28;46723;-78
2023/07/03 08:30:31;;;;;;;;;5.00;5.00;;;;;;;;5034026;28;45674;-77
2023/07/03 08:32:56;;;;;;;;;8.25;6.25;;;;;;;;5035773;28;45473;-77
2023/07/03 08:35:21;;;;;;;;;6.50;4.50;;;;;;;;5035540;28;45447;-77
2023/07/03 08:37:47;;;;;;;;;6.00;4.25;;;;;;;;5035065;28;45678;-78
2023/07/03 08:40:16;;;;;;;;;2.75;2.75;;;;;;;;5030847;28;45774;-77
2023/07/03 08:42:47;;;;;;;;;5.75;5.75;;;;;;;;5031822;28;45729;-76
2023/07/03 08:45:15;;;;;;;;;4.00;4.00;;;;;;;;5035470;28;45380;-79
2023/07/03 08:47:40;;;;;;;;;2.00;2.00;;;;;;;;5035050;28;45613;-78
2023/07/03 08:50:06;;;;;;;;;9.25;8.00;;;;;;;;5036643;28;45619;-79
2023/07/03 08:52:37;;;;;;;;;6.25;4.00;;;;;;;;5036273;28;46107;-78
2023/07/03 08:55:06;;;;;;;;;4.00;4.00;;;;;;;;5031369;28;45459;-78
2023/07/03 08:57:31;;;;;;;;;6.00;5.00;;;;;;;;5035663;28;45514;-77
2023/07/03 08:59:57;;;;;;;;;2.25;2.25;;;;;;;;5035118;28;45783;-83
2023/07/03 09:02:30;;;;;;;;;5.00;5.00;;;;;;;;5036272;28;46348;-77
2023/07/03 09:05:13;;;;;;;;;4.75;4.50;;;;;;;;5035966;28;45857;-77
2023/07/03 09:07:57;;;;;;;;;9.25;5.00;;;;;;;;5012202;28;45919;-77
2023/07/03 09:10:26;;;;;;;;;3.00;3.00;;;;;;;;5031573;28;45985;-76
2023/07/03 09:12:52;;;;;;;;;12.50;6.00;;;;;;;;5031703;28;46243;-77
2023/07/03 09:15:27;;;;;;;;;4.00;2.00;;;;;;;;5034807;28;45711;-77
2023/07/03 09:17:54;;;;;;;;;9.50;6.75;;;;;;;;5034650;28;45852;-78
2023/07/03 09:20:20;;;;;;;;;6.50;4.50;;;;;;;;5035292;28;45572;-78
2023/07/03 09:23:08;;;;;;;;;4.50;2.00;;;;;;;;5036423;28;46083;-78
2023/07/03 09:25:46;;;;;;;;;4.50;3.75;;;;;;;;5034624;28;45986;-80
2023/07/03 09:28:12;;;;;;;;;4.00;3.00;;;;;;;;5035346;28;45423;-79
2023/07/03 09:30:37;;;;;;;;;4.25;3.00;;;;;;;;5036049;28;45562;-81
2023/07/03 09:33:03;;;;;;;;;9.25;5.00;;;;;;;;5035712;28;45659;-79
2023/07/03 09:35:35;;;;;;;;;4.50;4.00;;;;;;;;5035799;28;45319;-80
2023/07/03 09:38:05;;;;;;;;;4.25;4.00;;;;;;;;5035056;28;45616;-79
2023/07/03 09:40:35;;;;;;;;;4.50;4.25;;;;;;;;5035467;28;45593;-80
2023/07/03 09:43:00;;;;;;;;;6.25;5.25;;;;;;;;5034687;28;45485;-79
2023/07/03 09:45:33;;;;;;;;;4.75;4.75;;;;;;;;5034322;28;45435;-80
2023/07/03 09:48:00;;;;;;;;;4.25;4.25;;;;;;;;5035453;28;45541;-79
2023/07/03 09:50:44;;;;;;;;;4.75;4.75;;;;;;;;5035924;28;45716;-79
2023/07/03 09:53:14;;;;;;;;;5.00;4.25;;;;;;;;5030658;28;45517;-77
2023/07/03 09:55:40;;;;;;;;;3.75;3.00;;;;;;;;5021899;28;45527;-79
2023/07/03 09:58:10;;;;;;;;;4.00;4.00;;;;;;;;5036168;28;45301;-79
2023/07/03 10:00:42;;;;;;;;;6.00;5.00;;;;;;;;5035972;28;45739;-80
2023/07/03 10:03:07;;;;;;;;;5.50;3.25;;;;;;;;5035645;28;45633;-78
2023/07/03 10:05:33;;;;;;;;;2.75;2.25;;;;;;;;5034247;28;45756;-79
2023/07/03 10:08:06;;;;;;;;;5.75;3.75;;;;;;;;5035764;28;45571;-80
2023/07/03 10:10:35;;;;;;;;;4.25;3.00;;;;;;;;5035584;28;45491;-80
2023/07/03 10:13:20;;;;;;;;;4.00;4.00;;;;;;;;5027859;28;46198;-80
2023/07/03 10:15:46;;;;;;;;;4.75;3.75;;;;;;;;5030572;28;45490;-77
2023/07/03 10:18:16;;;;;;;;;5.00;3.75;;;;;;;;5035372;28;45598;-78
2023/07/03 10:20:43;;;;;;;;;5.25;4.25;;;;;;;;5032846;28;45605;-79
2023/07/03 10:23:10;;;;;;;;;6.25;4.25;;;;;;;;5030603;28;45761;-78
2023/07/03 10:25:47;;;;;;;;;3.25;2.25;;;;;;;;5017577;28;45478;-77
2023/07/03 10:28:17;;;;;;;;;2.50;2.50;;;;;;;;5034848;28;45521;-77
2023/07/03 10:30:43;;;;;;;;;3.00;2.00;;;;;;;;5033705;28;45529;-83
2023/07/03 10:33:14;;;;;;;;;3.25;3.25;;;;;;;;5016427;28;47097;-83
2023/07/03 10:35:41;;;;;;;;;2.00;2.00;;;;;;;;5033667;28;45536;-84
2023/07/03 10:38:18;;;;;;;;;2.75;2.75;;;;;;;;5004184;28;45764;-83
2023/07/03 10:40:53;;;;;;;;;2.50;2.00;;;;;;;;5024416;28;45803;-83
2023/07/03 10:43:21;;;;;;;;;4.00;4.00;;;;;;;;5037807;28;45655;-83
2023/07/03 10:45:47;;;;;;;;;6.60;3.00;;;;;;;;5032839;28;45541;-83
2023/07/03 10:48:17;;;;;;;;;3.25;2.25;;;;;;;;5034602;28;45923;-83
2023/07/03 10:50:57;;;;;;;;;3.50;2.50;;;;;;;;5037467;28;45238;-83
2023/07/03 10:53:28;;;;;;;;;3.50;3.50;;;;;;;;5020458;28;47138;-82
2023/07/03 10:56:00;;;;;;;;;4.50;2.25;;;;;;;;5034641;28;45800;-82
2023/07/03 10:58:43;;;;;;;;;3.25;2.00;;;;;;;;5015494;28;45759;-84
2023/07/03 11:01:19;;;;;;;;;3.00;2.00;;;;;;;;5036228;28;45372;-82
2023/07/03 11:03:56;;;;;;;;;1.00;1.00;;;;;;;;5019770;28;45740;-84
2023/07/03 11:06:31;;;;;;;;;4.25;3.00;;;;;;;;5020138;28;45349;-84
2023/07/03 11:09:00;;;;;;;;;2.75;1.00;;;;;;;;5037984;28;45433;-83
2023/07/03 11:11:32;;;;;;;;;1.25;1.25;;;;;;;;5007506;28;45427;-85
2023/07/03 11:13:57;;;;;;;;;2.50;2.50;;;;;;;;5038870;28;45522;-85
2023/07/03 11:16:27;;;;;;;;;1.00;1.00;;;;;;;;5021098;28;45416;-83
2023/07/03 11:19:14;;;;;;;;;1.00;1.00;;;;;;;;5039284;28;45733;-85
2023/07/03 11:21:42;;;;;;;;;1.50;1.50;;;;;;;;5039262;28;45559;-83
2023/07/03 11:24:16;;;;;;;;;2.25;2.00;;;;;;;;5040135;28;46098;-84
2023/07/03 11:26:45;;;;;;;;;1.75;1.50;;;;;;;;5024372;28;45806;-83
2023/07/03 11:29:11;;;;;;;;;1.25;1.25;;;;;;;;5038090;28;45431;-84
2023/07/03 11:31:39;;;;;;;;;2.00;1.00;;;;;;;;5039458;28;45608;-85
2023/07/03 11:34:05;;;;;;;;;4.25;2.00;;;;;;;;5037352;28;45358;-84
2023/07/03 11:36:37;;;;;;;;;0.00;0.00;;;;;;;;5035862;28;45752;-83
2023/07/03 11:39:10;;;;;;;;;2.50;1.00;;;;;;;;5035989;28;45514;-83
2023/07/03 11:41:53;;;;;;;;;2.00;2.00;;;;;;;;5035610;28;45626;-84
2023/07/03 11:44:27;;;;;;;;;1.00;1.00;;;;;;;;5025163;28;45544;-83
2023/07/03 11:46:53;;;;;;;;;3.50;2.50;;;;;;;;5025069;28;45740;-83
2023/07/03 11:49:18;;;;;;;;;1.75;1.00;;;;;;;;5036256;28;45384;-84
2023/07/03 11:51:43;;;;;;;;;2.25;1.00;;;;;;;;5038534;28;45467;-83
2023/07/03 11:54:22;;;;;;;;;1.00;1.00;;;;;;;;5037397;28;46379;-85
2023/07/03 11:56:49;;;;;;;;;4.00;3.00;;;;;;;;5036051;28;45526;-84
2023/07/03 11:59:24;;;;;;;;;2.25;1.00;;;;;;;;5036989;28;45576;-84
2023/07/03 12:01:53;;;;;;;;;2.25;2.00;;;;;;;;5019970;28;45802;-87
2023/07/03 12:04:38;;;;;;;;;5.25;2.25;;;;;;;;5016709;28;48116;-83
2023/07/03 12:07:03;;;;;;;;;2.25;2.25;;;;;;;;5015007;28;45501;-83
2023/07/03 12:09:31;;;;;;;;;2.25;2.25;;;;;;;;5036880;28;45403;-85
2023/07/03 12:11:59;;;;;;;;;3.25;2.00;;;;;;;;5020091;28;45573;-84
2023/07/03 12:14:44;;;;;;;;;4.50;2.25;;;;;;;;5020428;28;47378;-82
2023/07/03 12:17:28;;;;;;;;;2.50;2.50;;;;;;;;5020979;28;45678;-83
2023/07/03 12:19:55;;;;;;;;;2.00;2.00;;;;;;;;5036503;28;45892;-84
2023/07/03 12:22:22;;;;;;;;;3.50;1.50;;;;;;;;5023238;28;45371;-85
2023/07/03 12:24:48;;;;;;;;;5.75;1.25;;;;;;;;5042167;28;45463;-84
2023/07/03 12:27:14;;;;;;;;;1.25;1.00;;;;;;;;5042158;28;45423;-84
2023/07/03 12:29:47;;;;;;;;;1.75;1.75;;;;;;;;5041809;28;45887;-83
2023/07/03 12:32:12;;;;;;;;;1.00;1.00;;;;;;;;5024036;28;46178;-81
2023/07/03 12:34:39;;;;;;;;;4.00;3.75;;;;;;;;5023575;28;47251;-83
2023/07/03 12:37:07;;;;;;;;;3.00;3.00;;;;;;;;5023364;28;45412;-85
2023/07/03 12:39:33;;;;;;;;;1.00;1.00;;;;;;;;5040677;28;45874;-83
2023/07/03 12:42:05;;;;;;;;;5.50;4.25;;;;;;;;5026036;28;45582;-82
2023/07/03 12:44:30;;;;;;;;;2.25;2.25;;;;;;;;5043559;28;45457;-84
2023/07/03 12:47:05;;;;;;;;;7.25;5.25;;;;;;;;5054993;28;45496;-85
2023/07/03 12:49:45;;;;;;;;;4.00;2.50;;;;;;;;5039286;28;45456;-83
2023/07/03 12:52:12;;;;;;;;;6.50;4.50;;;;;;;;5056970;28;45389;-83
2023/07/03 12:54:38;;;;;;;;;6.00;4.50;;;;;;;;5047827;28;46726;-84
2023/07/03 12:57:05;;;;;;;;;3.00;3.00;;;;;;;;5034166;28;45721;-83
2023/07/03 12:59:31;;;;;;;;;4.25;3.75;;;;;;;;5037332;28;45482;-84
2023/07/03 13:01:58;;;;;;;;;5.00;3.75;;;;;;;;5017077;28;47498;-83
2023/07/03 13:04:33;;;;;;;;;10.25;3.75;;;;;;;;5027686;28;46187;-82
2023/07/03 13:07:00;;;;;;;;;4.00;4.00;;;;;;;;5040190;28;45762;-83
2023/07/03 13:09:26;;;;;;;;;6.00;6.00;;;;;;;;5032507;28;45390;-82
2023/07/03 13:11:52;;;;;;;;;6.00;6.00;;;;;;;;5038133;28;45415;-83
2023/07/03 13:14:17;;;;;;;;;6.50;5.00;;;;;;;;5032903;28;45664;-82
2023/07/03 13:16:43;;;;;;;;;7.25;6.00;;;;;;;;5036162;28;45597;-84
2023/07/03 13:19:09;;;;;;;;;7.25;4.50;;;;;;;;5020373;28;45802;-83
2023/07/03 13:21:38;;;;;;;;;4.00;3.00;;;;;;;;5038814;28;45491;-85
2023/07/03 13:24:04;;;;;;;;;4.75;4.00;;;;;;;;5039286;28;45395;-85
2023/07/03 13:26:30;;;;;;;;;5.00;3.50;;;;;;;;5022098;28;45591;-85
2023/07/03 13:28:59;;;;;;;;;4.00;4.00;;;;;;;;5038895;28;45650;-76
2023/07/03 13:31:26;;;;;;;;;5.00;1.75;;;;;;;;5034115;28;45536;-74
2023/07/03 13:34:00;;;;;;;;;3.00;2.75;;;;;;;;5030254;28;45477;-77
2023/07/03 13:36:30;;;;;;;;;3.00;3.00;;;;;;;;5034660;28;45686;-75
2023/07/03 13:39:04;;;;;;;;;4.00;2.00;;;;;;;;5035250;28;45474;-76
2023/07/03 13:41:30;;;;;;;;;5.00;3.25;;;;;;;;5034677;28;45531;-76
2023/07/03 13:43:58;;;;;;;;;4.00;2.25;;;;;;;;5017553;28;47032;-75
2023/07/03 13:46:24;;;;;;;;;4.50;3.25;;;;;;;;5030458;28;45415;-78
2023/07/03 13:48:49;;;;;;;;;3.75;3.25;;;;;;;;5036233;28;45894;-76
2023/07/03 13:51:15;;;;;;;;;3.00;3.00;;;;;;;;5018082;28;45417;-75
2023/07/03 13:53:40;;;;;;;;;5.00;2.25;;;;;;;;5027921;28;46138;-76
2023/07/03 13:56:05;;;;;;;;;2.50;1.25;;;;;;;;5017495;28;45692;-78
2023/07/03 13:58:31;;;;;;;;;4.75;2.75;;;;;;;;5005592;28;45570;-75
2023/07/03 14:00:57;;;;;;;;;4.00;3.00;;;;;;;;5042370;28;45458;-77
2023/07/03 14:03:22;;;;;;;;;5.50;3.50;;;;;;;;5034227;28;46374;-76
2023/07/03 14:05:48;;;;;;;;;4.50;2.50;;;;;;;;5038784;28;45892;-75
2023/07/03 14:08:14;;;;;;;;;10.50;6.50;;;;;;;;5022596;28;46268;-76
2023/07/03 14:10:42;;;;;;;;;7.00;5.00;;;;;;;;5040892;28;45371;-85
2023/07/03 14:13:08;;;;;;;;;4.00;4.00;;;;;;;;5038180;28;45608;-77
2023/07/03 14:15:34;;;;;;;;;4.25;3.00;;;;;;;;5036189;28;45359;-76
2023/07/03 14:18:00;;;;;;;;;6.00;5.00;;;;;;;;5034820;28;45561;-80
2023/07/03 14:20:25;;;;;;;;;4.75;4.25;;;;;;;;5045564;28;45690;-90
2023/07/03 14:22:51;;;;;;;;;3.75;3.00;;;;;;;;5049783;28;45375;-88
2023/07/03 14:25:23;;;;;;;;;9.50;6.25;;;;;;;;5048566;28;45352;-89
2023/07/03 14:27:48;;;;;;;;;5.25;4.25;;;;;;;;5047202;28;45550;-88
2023/07/03 14:30:14;;;;;;;;;3.00;3.00;;;;;;;;5049543;28;45541;-88
2023/07/03 14:32:39;;;;;;;;;3.50;2.75;;;;;;;;5033871;28;45723;-89
2023/07/03 14:35:06;;;;;;;;;6.00;3.00;;;;;;;;5032277;28;45443;-89
2023/07/03 14:37:32;;;;;;;;;8.25;6.75;;;;;;;;5046295;28;45150;-89
2023/07/03 14:39:57;;;;;;;;;3.75;3.75;;;;;;;;5053039;28;45387;-89
2023/07/03 14:42:23;;;;;;;;;4.50;4.50;;;;;;;;5050907;28;45420;-89
2023/07/03 14:45:14;;;;;;;;;6.50;4.50;;;;;;;;5018058;28;45437;-86